Pearl Harbor, Hawaii
Current Conditions -  °F | °C
As of 12:53 AM on Friday 24 Oct 2014 (Local Time) from PHNL Reporting Station
Broken Clouds Broken Clouds  
Wind Chill: 77°   Ceiling: 5000
Heat Index: 79°   Visibility: 10mi
Dew Point: 70°   Wind: 6mph
Humidity: 79%   Direction: 40°NE
Pressure: 30.02"   Gusts: NA
Location:  21.31°N, 157.86°W
Report Text: PHNL 241053Z 04005KT 10SM FEW026 SCT039 BKN050 25/21 A3002 RMK AO2 RAB33E43 SLP165 VCSH E P0000 T02500211
Loading
Personal Weather Stations






























Interactive Weather Map
Tropical Storm Tracking
New forecast layout! Learn more

10-Day Weather Forecast

Advertisements
Track Severe Weather on mobile